San Diego, North Island Naval Air Station-Halsey Field (KNZY)

NameNorth Island Naval Air Station-Halsey Field
CitySan Diego
CountryUnited States
ICAOKNZY
IATANZY
Altitude8 m
CoordinatesGoogle Map
Live Air TrafficLiveATC.net
METARKNZY 120852Z 35003KT 6SM BR BKN008 15/13 A3004 RMK AO2 SLP173 T01500133 53002
2019-11-12 08:52:00 Wind: North-Northwest (350°) 1.54 m/s - Visibility: 9656.04 m - Weather: Mist - Temperature: 15 °C - Dew point: 13 °C - Humidity: 87.9% - Pressure: 1017.27 hPa
Statistics

The table below shows the detailed information of all flights to/from San Diego, North Island Naval Air Station-Halsey Field (KNZY).